KJCT/JCT METAR and TAF weather

Enter ICAO airport designator
Station Type Date Time Source
KJCT METAR 2020/01/23 06:04 UTC NOAA

KJCT 230604Z AUTO 24004KT 6SM BR OVC005 11/10 A2995 RMK AO2 T01110100


Station Type Date Time Source
KJCT Decoded METAR 2020/01/23 06:04 UTC NOAA

KIMBLE COUNTY AIRPORT, TX, United States (KJCT) 30-31N 099-46W 523M
Jan 23, 2020 - 01:04 AM EST / 2020.01.23 0604 UTC
Wind: from the WSW (240 degrees) at 5 MPH (4 KT):0
Visibility: 6 mile(s):0
Sky conditions: overcast
Weather: mist
Temperature: 52.0 F (11.1 C)
Dew Point: 50.0 F (10.0 C)
Relative Humidity: 92%
Pressure (altimeter): 29.95 in. Hg (1014 hPa)
ob: KJCT 230604Z AUTO 24004KT 6SM BR OVC005 11/10 A2995 RMK AO2 T01110100
cycle: 6

Station Type Date Time Source
KJCT TAF 2020/01/23 06:22 UTC NOAA

TAF KJCT 230520Z 2306/2406 VRB04KT 5SM BR BKN005
FM231500 36008KT P6SM SCT250

Example: see airport list